Time;durP1;ratioP1;P1;durP2;ratioP2;P2;SDS_P1;SDS_P2;PMS_P1;PMS_P2;Temp;Humidity;BMP_temperature;BMP_pressure;BME280_temperature;BME280_humidity;BME280_pressure;Samples;Min_cycle;Max_cycle;Signal;HPM_P1;HPM_P2
2021/12/05 05:01:34;;;;;;;9.63;2.37;;;4.70;99.90;;;;;;5487504;23;20496;-79
2021/12/05 05:04:04;;;;;;;3.93;2.17;;;4.70;99.90;;;;;;4956790;28;20445;-79
2021/12/05 05:06:31;;;;;;;3.63;2.43;;;4.70;99.90;;;;;;4957781;28;20441;-79
2021/12/05 05:08:58;;;;;;;7.10;2.57;;;4.70;99.90;;;;;;4957471;28;20457;-79
2021/12/05 05:11:27;;;;;;;5.40;2.20;;;4.60;99.90;;;;;;4956401;28;20549;-79
2021/12/05 05:13:54;;;;;;;4.40;2.30;;;4.50;99.90;;;;;;4956053;29;20856;-79
2021/12/05 05:16:24;;;;;;;2.33;1.80;;;4.50;99.90;;;;;;4955839;29;20449;-78
2021/12/05 05:18:56;;;;;;;2.77;1.70;;;4.40;99.90;;;;;;4954246;29;20449;-78
2021/12/05 05:21:35;;;;;;;2.17;1.67;;;4.30;99.90;;;;;;4953910;29;20567;-79
2021/12/05 05:29:56;;;;;;;3.63;2.03;;;4.10;99.90;;;;;;4953430;29;20505;-79
2021/12/05 05:41:27;;;;;;;3.13;1.70;;;4.10;99.90;;;;;;4913203;29;20517;-79
2021/12/05 05:46:53;;;;;;;3.27;1.60;;;4.10;99.90;;;;;;4953638;28;20460;-78
2021/12/05 05:49:22;;;;;;;5.03;2.63;;;4.00;99.90;;;;;;4955998;29;20449;-78
2021/12/05 05:51:51;;;;;;;3.80;1.80;;;3.90;99.90;;;;;;4955452;28;20495;-79
2021/12/05 05:54:19;;;;;;;2.87;1.70;;;3.90;99.90;;;;;;4956968;29;21048;-78
2021/12/05 05:56:47;;;;;;;4.77;2.00;;;3.90;99.90;;;;;;4956933;29;20539;-78
2021/12/05 05:59:19;;;;;;;3.57;1.90;;;3.80;99.90;;;;;;4956811;29;20452;-78
2021/12/05 06:03:18;;;;;;;7.40;1.60;;;3.90;99.90;;;;;;4956863;29;20580;-78
2021/12/05 06:04:45;;;;;;;2.13;1.93;;;3.90;99.90;;;;;;4956539;28;20453;-78
2021/12/05 06:07:15;;;;;;;6.27;2.27;;;3.90;99.90;;;;;;4956745;29;20961;-78
2021/12/05 06:09:42;;;;;;;4.10;1.60;;;3.90;99.90;;;;;;4956373;29;20461;-79
2021/12/05 06:12:09;;;;;;;4.00;1.93;;;3.90;99.90;;;;;;4956456;29;21008;-78
2021/12/05 06:14:36;;;;;;;4.80;1.60;;;4.00;99.90;;;;;;4956840;29;20888;-78
2021/12/05 06:17:03;;;;;;;4.47;1.70;;;4.00;99.90;;;;;;4956666;29;20536;-79
2021/12/05 06:19:30;;;;;;;3.67;2.00;;;4.00;99.90;;;;;;4956314;29;21004;-78
2021/12/05 06:21:57;;;;;;;6.80;1.70;;;4.10;99.90;;;;;;4956226;29;21020;-78
2021/12/05 06:24:26;;;;;;;8.80;1.83;;;4.10;99.90;;;;;;4956635;29;20516;-79
2021/12/05 06:26:53;;;;;;;3.17;1.97;;;4.10;99.90;;;;;;4956735;29;20527;-78
2021/12/05 06:29:22;;;;;;;2.20;1.70;;;4.10;99.90;;;;;;4956147;28;20465;-79
2021/12/05 06:32:00;;;;;;;3.00;1.80;;;4.10;99.90;;;;;;4956309;29;20504;-79
2021/12/05 06:37:29;;;;;;;7.07;1.80;;;4.00;99.90;;;;;;4956872;29;20435;-79
2021/12/05 06:40:18;;;;;;;4.60;2.10;;;4.00;99.90;;;;;;4940266;29;20821;-77
2021/12/05 06:42:54;;;;;;;2.60;1.97;;;4.00;99.90;;;;;;4937129;29;20541;-77
2021/12/05 06:48:06;;;;;;;2.90;1.70;;;4.10;99.90;;;;;;4944261;29;20564;-77
2021/12/05 06:50:33;;;;;;;2.70;1.53;;;4.10;99.90;;;;;;4955485;28;20464;-77
2021/12/05 06:53:00;;;;;;;3.87;2.00;;;4.10;99.90;;;;;;4955892;28;20592;-80
2021/12/05 06:55:29;;;;;;;1.93;1.50;;;4.10;99.90;;;;;;4955956;28;20513;-77
2021/12/05 06:57:56;;;;;;;3.77;1.60;;;4.10;99.90;;;;;;4955929;28;20539;-77
2021/12/05 07:00:27;;;;;;;2.60;1.40;;;4.00;99.90;;;;;;4955516;28;20548;-81
2021/12/05 07:02:54;;;;;;;4.43;1.70;;;4.00;99.90;;;;;;4955462;28;20469;-76
2021/12/05 07:05:39;;;;;;;5.80;2.40;;;4.00;99.90;;;;;;4955521;28;20540;-81
2021/12/05 07:08:08;;;;;;;5.10;2.10;;;3.90;99.90;;;;;;4955759;28;20864;-76
2021/12/05 07:10:43;;;;;;;2.80;2.07;;;3.80;99.90;;;;;;4955313;28;20518;-76
2021/12/05 07:13:44;;;;;;;5.10;1.87;;;3.80;99.90;;;;;;4955564;28;20480;-77
2021/12/05 07:16:17;;;;;;;5.00;1.73;;;3.80;99.90;;;;;;4955108;28;20449;-76
2021/12/05 07:18:58;;;;;;;5.33;1.93;;;3.90;99.90;;;;;;4955151;29;20910;-77
2021/12/05 07:21:36;;;;;;;6.87;2.13;;;3.80;99.90;;;;;;4955077;28;20473;-77
2021/12/05 07:24:11;;;;;;;3.30;2.20;;;3.80;99.90;;;;;;4955232;28;20448;-77
2021/12/05 07:40:27;;;;;;;3.13;2.07;;;3.80;99.90;;;;;;4954594;29;20480;-80
2021/12/05 07:42:57;;;;;;;5.10;2.53;;;3.90;99.90;;;;;;4954776;28;20445;-77
2021/12/05 07:45:30;;;;;;;5.50;2.60;;;3.90;99.90;;;;;;4955304;28;20543;-77
2021/12/05 07:48:01;;;;;;;3.20;2.37;;;4.00;99.90;;;;;;4954988;28;20487;-77
2021/12/05 07:50:39;;;;;;;6.07;2.33;;;4.00;99.90;;;;;;4939003;28;20538;-77
2021/12/05 07:53:11;;;;;;;2.40;1.93;;;4.00;99.90;;;;;;4935645;29;20473;-77
2021/12/05 07:55:42;;;;;;;3.17;2.40;;;4.00;99.90;;;;;;4935802;29;20481;-78
2021/12/05 07:58:26;;;;;;;3.50;2.00;;;4.10;99.90;;;;;;4935659;29;20442;-76
2021/12/05 08:00:55;;;;;;;6.03;2.20;;;4.10;99.90;;;;;;4935007;29;20983;-79
2021/12/05 08:14:36;;;;;;;5.17;2.70;;;4.20;99.90;;;;;;4953374;28;20476;-76
2021/12/05 08:17:16;;;;;;;8.30;2.00;;;4.20;99.90;;;;;;4953343;28;20456;-78
2021/12/05 08:22:40;;;;;;;3.70;2.60;;;4.20;99.90;;;;;;4943966;28;20456;-77
2021/12/05 08:25:11;;;;;;;8.30;3.30;;;4.20;99.90;;;;;;4954462;28;21153;-78
2021/12/05 08:27:41;;;;;;;3.20;2.90;;;4.20;99.90;;;;;;4955059;29;20453;-77
2021/12/05 08:30:15;;;;;;;7.00;2.50;;;4.20;99.90;;;;;;4954868;28;20459;-76
2021/12/05 08:32:56;;;;;;;7.77;3.47;;;4.20;99.90;;;;;;4954253;29;20452;-77
2021/12/05 08:35:43;;;;;;;5.43;3.10;;;4.20;99.90;;;;;;4953886;29;20460;-77
2021/12/05 08:44:26;;;;;;;3.33;2.77;;;4.30;99.90;;;;;;4934183;29;20438;-78
2021/12/05 09:20:54;;;;;;;5.80;3.93;;;4.80;99.90;;;;;;4916211;28;21025;-77
2021/12/05 09:26:34;;;;;;;6.43;3.70;;;5.10;99.90;;;;;;4932405;28;20496;-77
2021/12/05 09:29:20;;;;;;;8.23;3.73;;;5.20;99.90;;;;;;4958881;29;20492;-77
2021/12/05 09:40:16;;;;;;;4.63;2.30;;;5.40;99.90;;;;;;4960688;29;20951;-78
2021/12/05 09:51:22;;;;;;;5.07;2.70;;;5.60;99.90;;;;;;4959555;29;20467;-77
2021/12/05 10:08:15;;;;;;;8.23;2.17;;;6.10;99.90;;;;;;4909326;29;20442;-77
2021/12/05 10:10:54;;;;;;;6.90;1.87;;;6.10;99.90;;;;;;4953860;28;20504;-77
2021/12/05 10:13:28;;;;;;;2.13;1.40;;;6.10;99.90;;;;;;4958755;28;20492;-77
2021/12/05 10:16:13;;;;;;;6.60;2.00;;;6.20;99.90;;;;;;4959205;28;20468;-77
2021/12/05 10:19:07;;;;;;;5.20;2.60;;;6.30;99.90;;;;;;4958707;28;20456;-77
2021/12/05 10:38:31;;;;;;;5.20;2.10;;;7.10;99.90;;;;;;4934749;29;20430;-79
2021/12/05 10:41:17;;;;;;;2.30;1.40;;;6.90;99.90;;;;;;4951392;28;20491;-79
2021/12/05 10:43:48;;;;;;;1.30;1.20;;;6.80;99.90;;;;;;4956486;28;20441;-78
2021/12/05 10:46:16;;;;;;;2.53;1.50;;;6.70;99.90;;;;;;4955452;28;20536;-78
2021/12/05 10:48:47;;;;;;;2.90;1.50;;;6.70;99.90;;;;;;4955825;28;20457;-78
2021/12/05 10:51:16;;;;;;;4.30;1.80;;;6.80;99.90;;;;;;4956443;28;20571;-78
2021/12/05 10:53:45;;;;;;;4.33;1.50;;;6.90;99.90;;;;;;4956178;28;20909;-79
2021/12/05 10:56:16;;;;;;;3.80;1.70;;;6.90;99.90;;;;;;4956272;28;21052;-79
2021/12/05 10:58:48;;;;;;;2.50;1.80;;;7.00;99.90;;;;;;4958198;28;20441;-80
2021/12/05 11:01:20;;;;;;;3.47;1.53;;;7.00;99.90;;;;;;4957608;28;20512;-80
2021/12/05 11:03:49;;;;;;;3.70;1.57;;;7.00;99.90;;;;;;4957074;28;20912;-80
2021/12/05 11:06:33;;;;;;;1.80;1.40;;;7.00;99.90;;;;;;4957190;29;20452;-79
2021/12/05 11:09:04;;;;;;;2.20;1.37;;;7.00;99.90;;;;;;4958644;28;20996;-80
2021/12/05 11:11:36;;;;;;;4.90;1.60;;;7.00;99.90;;;;;;4956701;28;20572;-71
2021/12/05 11:14:10;;;;;;;5.43;1.70;;;7.00;99.90;;;;;;4955912;28;20496;-77
2021/12/05 11:16:52;;;;;;;4.40;1.73;;;7.10;99.90;;;;;;4969507;23;20536;-75
2021/12/05 11:19:30;;;;;;;6.17;2.07;;;7.10;99.90;;;;;;4953552;28;20453;-75
2021/12/05 11:22:06;;;;;;;4.07;1.60;;;7.20;99.90;;;;;;4954834;28;20522;-73
2021/12/05 11:24:35;;;;;;;1.43;1.17;;;7.30;99.90;;;;;;4954846;29;20535;-73
2021/12/05 11:27:12;;;;;;;4.30;1.60;;;7.50;99.90;;;;;;4954474;29;20479;-73
2021/12/05 11:29:55;;;;;;;4.47;1.60;;;7.50;99.90;;;;;;4954465;29;21028;-73
2021/12/05 11:32:32;;;;;;;4.40;1.80;;;7.50;99.90;;;;;;4954708;28;20479;-73
2021/12/05 11:35:09;;;;;;;1.53;1.00;;;7.60;99.90;;;;;;4954887;28;20528;-74
2021/12/05 11:37:53;;;;;;;3.80;1.50;;;7.70;99.90;;;;;;4954560;28;20560;-74
2021/12/05 11:40:20;;;;;;;2.03;1.60;;;7.80;99.90;;;;;;4952045;29;20528;-73
2021/12/05 11:42:56;;;;;;;4.40;2.60;;;7.60;99.90;;;;;;4953603;28;20456;-73
2021/12/05 11:45:24;;;;;;;3.37;1.63;;;7.50;99.90;;;;;;4954560;29;20790;-73
2021/12/05 11:47:54;;;;;;;2.03;1.70;;;7.50;99.90;;;;;;4954674;28;20504;-74
2021/12/05 11:50:31;;;;;;;2.40;1.57;;;7.50;99.90;;;;;;4950006;28;20438;-75
2021/12/05 11:52:58;;;;;;;2.60;1.47;;;7.60;99.90;;;;;;4935263;29;20453;-74
2021/12/05 11:55:28;;;;;;;3.50;1.53;;;7.80;99.90;;;;;;4935009;29;20589;-74
2021/12/05 11:57:55;;;;;;;2.10;1.60;;;7.90;99.90;;;;;;4945215;29;20553;-74
2021/12/05 12:00:25;;;;;;;1.23;1.20;;;7.90;99.90;;;;;;4954181;28;20457;-75
2021/12/05 12:02:55;;;;;;;5.67;1.50;;;7.90;99.90;;;;;;4954500;28;20957;-73
2021/12/05 12:05:25;;;;;;;7.13;1.70;;;7.80;99.90;;;;;;4954289;28;20476;-74
2021/12/05 12:08:00;;;;;;;1.50;1.27;;;7.80;99.90;;;;;;4954104;28;20551;-74
2021/12/05 12:10:30;;;;;;;5.83;1.90;;;7.80;99.90;;;;;;4953967;28;20496;-74
2021/12/05 12:13:01;;;;;;;5.40;3.50;;;7.70;99.90;;;;;;4954308;28;20504;-75
2021/12/05 12:15:30;;;;;;;4.10;2.90;;;7.70;99.90;;;;;;4954018;28;20584;-74
2021/12/05 12:18:08;;;;;;;5.50;2.90;;;7.70;99.90;;;;;;4953900;28;20488;-74
2021/12/05 12:20:38;;;;;;;5.80;3.30;;;7.60;99.90;;;;;;4934573;29;20453;-75
2021/12/05 12:23:05;;;;;;;2.90;1.80;;;7.50;99.90;;;;;;4949455;29;20460;-75
2021/12/05 12:25:35;;;;;;;4.30;2.20;;;7.50;99.90;;;;;;4953451;28;20535;-75
2021/12/05 12:28:03;;;;;;;2.10;1.60;;;7.40;99.90;;;;;;4952835;28;20913;-75
2021/12/05 12:30:33;;;;;;;2.60;2.20;;;7.30;99.90;;;;;;4952599;28;20547;-75
2021/12/05 12:33:05;;;;;;;3.17;1.53;;;7.30;99.90;;;;;;4940611;28;20456;-75
2021/12/05 12:35:34;;;;;;;2.50;1.80;;;7.30;99.90;;;;;;4933862;29;20495;-75
2021/12/05 12:38:06;;;;;;;4.50;2.40;;;7.30;99.90;;;;;;4933703;29;20496;-76
2021/12/05 12:40:41;;;;;;;2.30;1.90;;;7.30;99.90;;;;;;4933430;29;20508;-75
2021/12/05 12:43:10;;;;;;;3.03;2.70;;;7.40;99.90;;;;;;4933723;29;20540;-75
2021/12/05 12:45:41;;;;;;;3.97;2.40;;;7.40;99.90;;;;;;4933561;29;20456;-75
2021/12/05 12:48:12;;;;;;;6.70;2.27;;;7.40;99.90;;;;;;4933947;29;20540;-76
2021/12/05 12:50:51;;;;;;;2.97;1.83;;;7.40;99.90;;;;;;4933426;29;21022;-75
2021/12/05 12:53:20;;;;;;;4.30;2.53;;;7.40;99.90;;;;;;4933840;29;20488;-75
2021/12/05 12:55:54;;;;;;;4.87;2.47;;;7.40;99.90;;;;;;4933394;29;20588;-75
2021/12/05 12:58:43;;;;;;;2.00;1.80;;;7.40;99.90;;;;;;4933862;29;20876;-75
2021/12/05 13:01:35;;;;;;;4.97;2.00;;;7.40;99.90;;;;;;4936019;29;20450;-76
2021/12/05 13:04:37;;;;;;;3.90;2.47;;;7.40;99.90;;;;;;4950866;29;20499;-75
2021/12/05 13:10:09;;;;;;;2.23;2.03;;;7.70;99.90;;;;;;4915655;29;20254;-74
2021/12/05 13:13:11;;;;;;;2.63;1.60;;;7.70;99.90;;;;;;4947500;28;20500;-74
2021/12/05 13:15:42;;;;;;;4.03;1.77;;;7.70;99.90;;;;;;4915480;29;20536;-74
2021/12/05 13:18:28;;;;;;;7.23;2.60;;;7.70;99.90;;;;;;4949181;28;20932;-74
2021/12/05 13:20:59;;;;;;;2.47;2.10;;;7.60;99.90;;;;;;4956027;28;20530;-75
2021/12/05 13:23:38;;;;;;;3.40;1.97;;;7.60;99.90;;;;;;4956399;28;20453;-74
2021/12/05 13:26:13;;;;;;;5.60;1.80;;;7.60;99.90;;;;;;4956309;28;20842;-74
2021/12/05 13:28:44;;;;;;;2.03;1.30;;;7.60;99.90;;;;;;4955909;28;20550;-74
2021/12/05 13:31:35;;;;;;;4.20;1.40;;;7.60;99.90;;;;;;4954982;28;20457;-74
2021/12/05 13:34:27;;;;;;;2.57;1.53;;;7.90;99.90;;;;;;4956012;28;20547;-74
2021/12/05 13:36:57;;;;;;;2.27;1.60;;;8.00;99.90;;;;;;4955914;29;20472;-74
2021/12/05 13:39:36;;;;;;;3.23;1.50;;;7.90;99.90;;;;;;4955707;28;20535;-74
2021/12/05 13:42:06;;;;;;;1.63;1.50;;;7.80;99.90;;;;;;4955558;28;20539;-74
2021/12/05 13:45:12;;;;;;;2.43;1.47;;;7.80;99.90;;;;;;4955986;28;20523;-74
2021/12/05 13:47:46;;;;;;;4.80;1.70;;;7.80;99.90;;;;;;4955697;29;20539;-74
2021/12/05 13:50:54;;;;;;;3.13;1.63;;;7.80;99.90;;;;;;4954413;29;20547;-74
2021/12/05 13:53:27;;;;;;;1.90;1.67;;;7.50;99.90;;;;;;4926851;29;20478;-75
2021/12/05 13:56:13;;;;;;;3.27;1.90;;;7.40;99.90;;;;;;4956224;29;20912;-73
2021/12/05 13:58:47;;;;;;;4.13;1.63;;;7.40;99.90;;;;;;4955573;29;20540;-74
2021/12/05 14:01:23;;;;;;;1.90;1.73;;;7.20;99.90;;;;;;4954661;29;20452;-74
2021/12/05 14:04:23;;;;;;;2.33;2.07;;;6.80;99.90;;;;;;4956933;28;20519;-74
2021/12/05 14:06:54;;;;;;;2.80;1.57;;;6.70;99.90;;;;;;4956233;28;20480;-73
2021/12/05 14:09:37;;;;;;;4.20;2.30;;;6.50;99.90;;;;;;4956333;28;20458;-73
2021/12/05 14:12:11;;;;;;;2.33;1.80;;;6.40;99.90;;;;;;4953338;28;20495;-73
2021/12/05 14:14:41;;;;;;;2.70;1.43;;;6.60;99.90;;;;;;4956122;28;20273;-73
2021/12/05 14:17:11;;;;;;;1.47;1.37;;;6.60;99.90;;;;;;4956033;28;20911;-73
2021/12/05 14:19:40;;;;;;;4.13;1.60;;;6.50;99.90;;;;;;4955099;28;20544;-71
2021/12/05 14:22:12;;;;;;;2.73;1.90;;;6.40;99.90;;;;;;4955055;29;21008;-72
2021/12/05 14:24:41;;;;;;;3.40;1.93;;;6.40;99.90;;;;;;4955230;28;20532;-72
2021/12/05 14:27:10;;;;;;;1.40;1.30;;;6.40;99.90;;;;;;4956028;28;20477;-73
2021/12/05 14:29:40;;;;;;;3.00;1.47;;;6.30;99.90;;;;;;4955440;28;20945;-72
2021/12/05 14:32:11;;;;;;;2.43;1.80;;;6.30;99.90;;;;;;4955708;28;21016;-72
2021/12/05 14:34:38;;;;;;;3.23;2.17;;;6.20;99.90;;;;;;4955792;28;21013;-74
2021/12/05 14:37:10;;;;;;;4.50;2.90;;;6.00;99.90;;;;;;4955868;28;20551;-71
2021/12/05 14:39:39;;;;;;;6.87;6.07;;;5.80;99.90;;;;;;4955020;28;20472;-72
2021/12/05 14:42:09;;;;;;;5.03;4.53;;;5.50;99.90;;;;;;4955530;28;21013;-75
2021/12/05 14:44:38;;;;;;;2.10;1.90;;;5.20;99.90;;;;;;4956640;28;20453;-75
2021/12/05 14:47:09;;;;;;;5.57;2.37;;;4.90;99.90;;;;;;4955527;28;20476;-74
2021/12/05 14:49:39;;;;;;;2.40;2.13;;;4.80;99.90;;;;;;4955511;28;20480;-73
2021/12/05 14:52:10;;;;;;;2.13;1.97;;;4.80;99.90;;;;;;4955672;28;20480;-73
2021/12/05 14:54:39;;;;;;;1.90;1.50;;;4.90;99.90;;;;;;4955113;28;20591;-73
2021/12/05 14:57:09;;;;;;;3.90;2.27;;;4.90;99.90;;;;;;4955563;28;20517;-74
2021/12/05 14:59:37;;;;;;;2.63;2.00;;;4.90;99.90;;;;;;4955470;28;20501;-74
2021/12/05 15:02:05;;;;;;;1.60;1.30;;;4.90;99.90;;;;;;4955518;28;20499;-74
2021/12/05 15:04:38;;;;;;;2.67;1.53;;;4.90;99.90;;;;;;4955238;29;20456;-74
2021/12/05 15:07:06;;;;;;;1.83;1.43;;;4.80;99.90;;;;;;4955043;28;20556;-73
2021/12/05 15:09:37;;;;;;;3.23;1.30;;;4.80;99.90;;;;;;4955027;28;20465;-75
2021/12/05 15:12:08;;;;;;;1.07;1.00;;;4.70;99.90;;;;;;4955382;28;20874;-73
2021/12/05 15:14:36;;;;;;;1.40;1.10;;;4.60;99.90;;;;;;4955234;28;20532;-73
2021/12/05 15:17:08;;;;;;;1.30;1.20;;;4.60;99.90;;;;;;4954855;29;20543;-73
2021/12/05 15:19:38;;;;;;;2.40;2.10;;;4.60;99.90;;;;;;4954770;28;20433;-73
2021/12/05 15:22:06;;;;;;;2.70;2.30;;;4.60;99.90;;;;;;4955280;28;20515;-73
2021/12/05 15:24:35;;;;;;;2.90;2.00;;;4.60;99.90;;;;;;4954760;28;20467;-73
2021/12/05 15:27:04;;;;;;;2.13;1.43;;;4.60;99.90;;;;;;4954404;28;21012;-73
2021/12/05 15:29:31;;;;;;;2.33;2.10;;;4.70;99.90;;;;;;4954234;28;20544;-73
2021/12/05 15:31:59;;;;;;;2.03;1.83;;;4.60;99.90;;;;;;4954232;28;20841;-73
2021/12/05 15:34:31;;;;;;;3.27;2.53;;;4.50;99.90;;;;;;4954304;28;20529;-73
2021/12/05 15:36:59;;;;;;;4.47;2.67;;;4.60;99.90;;;;;;4954528;28;20928;-74
2021/12/05 15:39:30;;;;;;;2.17;1.97;;;4.60;99.90;;;;;;4953970;28;20512;-74
2021/12/05 15:42:00;;;;;;;3.03;2.53;;;4.60;99.90;;;;;;4953319;28;20472;-74
2021/12/05 15:44:31;;;;;;;9.47;6.00;;;4.60;99.90;;;;;;4951031;29;20446;-74
2021/12/05 15:47:08;;;;;;;10.63;6.27;;;4.70;99.90;;;;;;4954155;28;20484;-74
2021/12/05 15:49:50;;;;;;;5.47;4.73;;;4.70;99.90;;;;;;4952055;29;20452;-73
2021/12/05 15:52:20;;;;;;;7.60;4.80;;;4.60;99.90;;;;;;4952848;29;20524;-73
2021/12/05 15:54:48;;;;;;;1.97;1.87;;;4.70;99.90;;;;;;4953983;28;20980;-73
2021/12/05 15:57:23;;;;;;;5.30;3.20;;;4.60;99.90;;;;;;4953366;28;20527;-72
2021/12/05 15:59:50;;;;;;;11.83;7.67;;;4.60;99.90;;;;;;4951580;29;20484;-72
2021/12/05 16:02:18;;;;;;;9.13;5.80;;;4.50;99.90;;;;;;4953882;28;20953;-71
2021/12/05 16:04:47;;;;;;;5.90;4.97;;;4.40;99.90;;;;;;4953648;29;20511;-73
2021/12/05 16:07:16;;;;;;;5.57;4.70;;;4.40;99.90;;;;;;4952339;28;20557;-72
2021/12/05 16:09:47;;;;;;;4.10;3.77;;;4.50;99.90;;;;;;4949362;28;20475;-73
2021/12/05 16:12:19;;;;;;;5.77;3.50;;;4.50;99.90;;;;;;4951692;29;20449;-73
2021/12/05 16:14:49;;;;;;;8.20;5.83;;;4.50;99.90;;;;;;4952963;28;20456;-73
2021/12/05 16:17:25;;;;;;;7.37;5.90;;;4.50;99.90;;;;;;4951537;28;20500;-72
2021/12/05 16:20:14;;;;;;;7.27;4.67;;;4.50;99.90;;;;;;4947616;29;20507;-72
2021/12/05 16:23:12;;;;;;;5.73;5.00;;;4.50;99.90;;;;;;4952800;28;20460;-74
2021/12/05 16:25:44;;;;;;;5.43;4.70;;;4.50;99.90;;;;;;4952284;28;20479;-72
2021/12/05 16:28:14;;;;;;;7.87;4.90;;;4.50;99.90;;;;;;4954124;28;20539;-75
2021/12/05 16:30:45;;;;;;;32.57;17.33;;;4.40;99.90;;;;;;4953626;28;20949;-73
2021/12/05 16:33:14;;;;;;;16.33;12.90;;;4.40;99.90;;;;;;4953773;28;20883;-75
2021/12/05 16:35:46;;;;;;;13.73;9.60;;;4.40;99.90;;;;;;4953090;28;20980;-75
2021/12/05 16:38:27;;;;;;;7.13;4.97;;;4.30;99.90;;;;;;4953313;28;20845;-75
2021/12/05 16:41:05;;;;;;;9.20;6.00;;;4.30;99.90;;;;;;4953487;28;20539;-77
2021/12/05 16:43:36;;;;;;;10.23;6.57;;;4.20;99.90;;;;;;4954017;28;20456;-72
2021/12/05 16:46:11;;;;;;;7.50;5.53;;;4.10;99.90;;;;;;4953890;28;20893;-73
2021/12/05 16:48:41;;;;;;;8.40;5.67;;;4.10;99.90;;;;;;4954053;28;20532;-72
2021/12/05 16:51:14;;;;;;;8.70;5.03;;;4.00;99.90;;;;;;4953565;28;20497;-72
2021/12/05 16:53:45;;;;;;;4.30;3.67;;;3.90;99.90;;;;;;4953517;28;20945;-73
2021/12/05 16:56:13;;;;;;;4.53;3.80;;;3.90;99.90;;;;;;4946333;28;20501;-72
2021/12/05 16:58:43;;;;;;;4.93;3.83;;;3.80;99.90;;;;;;4934677;29;20457;-73
2021/12/05 17:01:16;;;;;;;5.00;3.43;;;3.70;99.90;;;;;;4948614;29;20449;-74
2021/12/05 17:03:45;;;;;;;4.17;3.27;;;3.70;99.90;;;;;;4951205;28;20457;-72
2021/12/05 17:06:12;;;;;;;12.37;4.27;;;3.70;99.90;;;;;;4944608;29;20500;-72
2021/12/05 17:08:44;;;;;;;31.70;17.33;;;3.70;99.90;;;;;;4943732;29;20481;-73
2021/12/05 17:11:13;;;;;;;31.00;17.30;;;3.60;99.90;;;;;;4940578;29;20497;-75
2021/12/05 17:13:44;;;;;;;30.30;19.50;;;3.60;99.90;;;;;;4943230;29;20540;-75
2021/12/05 17:16:13;;;;;;;18.80;10.80;;;3.60;99.90;;;;;;4943324;29;20573;-75
2021/12/05 17:18:43;;;;;;;25.33;16.37;;;3.60;99.90;;;;;;4943154;29;20438;-76
2021/12/05 17:21:15;;;;;;;20.63;12.57;;;3.60;99.90;;;;;;4953558;29;20465;-71
2021/12/05 17:23:45;;;;;;;10.30;8.23;;;3.60;99.90;;;;;;4953521;29;20437;-72
2021/12/05 17:26:17;;;;;;;12.43;10.20;;;3.60;99.90;;;;;;4939892;29;20533;-72
2021/12/05 17:28:49;;;;;;;21.83;14.17;;;3.60;99.90;;;;;;4939690;29;20477;-71
2021/12/05 17:31:22;;;;;;;17.30;12.60;;;3.60;99.90;;;;;;4953606;29;20547;-71
2021/12/05 17:33:53;;;;;;;17.37;11.97;;;3.50;99.90;;;;;;4953459;29;20968;-71
2021/12/05 17:36:26;;;;;;;15.00;11.13;;;3.50;99.90;;;;;;4953058;29;20535;-71
2021/12/05 17:38:57;;;;;;;17.63;11.53;;;3.50;99.90;;;;;;4952993;29;20498;-72
2021/12/05 17:41:26;;;;;;;11.40;9.27;;;3.50;99.90;;;;;;4953402;29;20930;-71
2021/12/05 17:43:55;;;;;;;14.63;10.60;;;3.50;99.90;;;;;;4952789;29;20531;-75
2021/12/05 17:46:23;;;;;;;12.20;8.45;;;3.50;99.90;;;;;;4952505;28;20491;-74
2021/12/05 17:48:50;;;;;;;7.77;6.97;;;3.60;99.90;;;;;;4956289;29;20248;-71
2021/12/05 17:51:17;;;;;;;9.77;6.70;;;3.70;99.90;;;;;;4956690;29;20491;-71
2021/12/05 17:53:45;;;;;;;6.87;5.67;;;3.60;99.90;;;;;;4956695;29;20525;-72
2021/12/05 17:56:15;;;;;;;11.20;7.23;;;3.50;99.90;;;;;;4956756;29;20496;-71
2021/12/05 17:59:12;;;;;;;10.87;8.17;;;3.40;99.90;;;;;;4956919;28;20830;-71
2021/12/05 18:04:28;;;;;;;7.30;6.40;;;3.30;99.90;;;;;;4956454;29;20456;-72
2021/12/05 18:06:56;;;;;;;7.87;6.60;;;3.20;99.90;;;;;;4956596;29;20471;-73
2021/12/05 18:09:23;;;;;;;7.07;6.33;;;3.10;99.90;;;;;;4956521;29;20539;-73
2021/12/05 18:11:51;;;;;;;6.77;6.07;;;3.10;99.90;;;;;;4956432;29;20547;-72
2021/12/05 18:14:18;;;;;;;7.37;5.77;;;3.10;99.90;;;;;;4956581;29;20452;-72
2021/12/05 18:16:47;;;;;;;7.77;5.87;;;3.10;99.90;;;;;;4955905;29;20532;-74
2021/12/05 18:19:17;;;;;;;6.80;6.00;;;3.10;99.90;;;;;;4955998;29;21044;-73
2021/12/05 18:21:44;;;;;;;11.67;8.27;;;3.10;99.90;;;;;;4956451;29;20544;-73
2021/12/05 18:24:13;;;;;;;9.33;7.67;;;3.10;99.90;;;;;;4956268;29;20492;-73
2021/12/05 18:26:42;;;;;;;11.57;9.00;;;3.10;99.90;;;;;;4956179;28;20936;-72
2021/12/05 18:29:12;;;;;;;10.73;8.57;;;3.00;99.90;;;;;;4955588;29;20509;-74
2021/12/05 18:31:41;;;;;;;8.67;7.00;;;3.00;99.90;;;;;;4956080;29;20933;-73
2021/12/05 18:34:12;;;;;;;8.00;6.40;;;3.00;99.90;;;;;;4956147;29;20544;-72
2021/12/05 18:36:41;;;;;;;9.57;7.00;;;3.00;99.90;;;;;;4955943;28;20501;-73
2021/12/05 18:39:12;;;;;;;13.40;8.23;;;3.00;99.90;;;;;;4955083;29;20461;-73
2021/12/05 18:41:40;;;;;;;9.80;7.67;;;3.10;99.90;;;;;;4954772;29;20457;-72
2021/12/05 18:44:15;;;;;;;11.37;7.53;;;3.00;99.90;;;;;;4954711;29;20980;-72
2021/12/05 18:46:42;;;;;;;10.10;7.80;;;3.10;99.90;;;;;;4954891;29;20857;-72
2021/12/05 18:49:10;;;;;;;9.50;8.03;;;3.10;99.90;;;;;;4954419;29;20480;-72
2021/12/05 18:51:37;;;;;;;12.30;9.53;;;3.10;99.90;;;;;;4955105;29;20456;-73
2021/12/05 18:54:04;;;;;;;14.00;9.67;;;3.10;99.90;;;;;;4955682;29;20487;-73
2021/12/05 18:56:32;;;;;;;10.87;8.50;;;3.10;99.90;;;;;;4955612;28;20579;-72
2021/12/05 18:58:59;;;;;;;14.10;10.70;;;3.10;99.90;;;;;;4955154;28;21010;-72
2021/12/05 19:04:23;;;;;;;16.83;12.20;;;3.10;99.90;;;;;;4955426;29;20431;-72
2021/12/05 19:06:56;;;;;;;27.03;17.87;;;3.20;99.90;;;;;;4955240;29;20468;-72
2021/12/05 19:09:40;;;;;;;22.67;15.23;;;3.20;99.90;;;;;;4955445;29;20464;-72
2021/12/05 19:12:07;;;;;;;26.47;15.50;;;3.20;99.90;;;;;;4955524;29;20822;-72
2021/12/05 19:14:37;;;;;;;22.07;14.80;;;3.20;99.90;;;;;;4955601;28;20460;-72
2021/12/05 19:17:09;;;;;;;15.63;9.80;;;3.20;99.90;;;;;;4955065;29;20539;-72
2021/12/05 19:19:41;;;;;;;16.27;11.77;;;3.20;99.90;;;;;;4955466;29;20532;-72
2021/12/05 19:22:10;;;;;;;14.67;11.57;;;3.30;99.90;;;;;;4955478;29;20460;-72
2021/12/05 19:24:38;;;;;;;13.90;10.10;;;3.20;99.90;;;;;;4955541;29;20544;-72
2021/12/05 19:27:06;;;;;;;11.60;8.10;;;3.30;99.90;;;;;;4955088;29;20884;-72
2021/12/05 19:29:36;;;;;;;12.67;8.60;;;3.20;99.90;;;;;;4954639;29;20969;-73
2021/12/05 19:32:04;;;;;;;11.77;7.90;;;3.30;99.90;;;;;;4955405;29;20457;-72
2021/12/05 19:34:31;;;;;;;10.17;6.60;;;3.30;99.90;;;;;;4954892;29;20798;-72
2021/12/05 19:37:00;;;;;;;7.67;6.23;;;3.30;99.90;;;;;;4954563;29;20861;-73
2021/12/05 19:39:29;;;;;;;8.03;6.27;;;3.40;99.90;;;;;;4953687;29;20477;-72
2021/12/05 19:41:57;;;;;;;9.67;6.80;;;3.40;99.90;;;;;;4954067;28;20480;-72
2021/12/05 19:44:25;;;;;;;7.37;6.43;;;3.40;99.90;;;;;;4953655;29;20551;-72
2021/12/05 19:46:52;;;;;;;16.20;8.73;;;3.40;99.90;;;;;;4953435;29;20548;-72
2021/12/05 19:49:19;;;;;;;17.03;11.83;;;3.40;99.90;;;;;;4953391;29;20638;-72
2021/12/05 19:51:47;;;;;;;14.67;9.60;;;3.30;99.90;;;;;;4953540;29;20536;-72
2021/12/05 19:54:16;;;;;;;14.27;9.77;;;3.30;99.90;;;;;;4953467;29;20484;-73
2021/12/05 19:56:46;;;;;;;11.23;8.73;;;3.20;99.90;;;;;;4953221;29;20493;-73
2021/12/05 19:59:17;;;;;;;15.60;10.87;;;3.30;99.90;;;;;;4953333;29;20559;-72
2021/12/05 20:01:46;;;;;;;12.03;9.47;;;3.30;99.90;;;;;;4953317;29;20958;-72
2021/12/05 20:04:13;;;;;;;14.07;10.50;;;3.40;99.90;;;;;;4953295;29;20453;-73
2021/12/05 20:06:43;;;;;;;14.83;10.60;;;3.40;99.90;;;;;;4953089;29;20993;-72
2021/12/05 20:09:11;;;;;;;17.93;11.80;;;3.40;99.90;;;;;;4952673;28;20552;-72
2021/12/05 20:11:43;;;;;;;19.47;14.90;;;3.40;99.90;;;;;;4952948;29;20551;-72
2021/12/05 20:14:10;;;;;;;15.50;11.17;;;3.50;99.90;;;;;;4953397;28;20540;-72
2021/12/05 20:16:38;;;;;;;13.17;10.97;;;3.50;99.90;;;;;;4953121;29;20539;-72
2021/12/05 20:19:08;;;;;;;13.20;11.00;;;3.50;99.90;;;;;;4953010;29;20456;-72
2021/12/05 20:21:39;;;;;;;15.13;11.73;;;3.50;99.90;;;;;;4953127;29;20492;-73
2021/12/05 20:24:07;;;;;;;12.40;9.13;;;3.50;99.90;;;;;;4953152;28;20573;-72
2021/12/05 20:26:35;;;;;;;12.30;9.30;;;3.50;99.90;;;;;;4952931;29;20556;-73
2021/12/05 20:29:06;;;;;;;11.10;8.93;;;3.40;99.90;;;;;;4952480;29;20512;-72
2021/12/05 20:31:33;;;;;;;10.87;8.73;;;3.40;99.90;;;;;;4939640;29;20474;-73
2021/12/05 20:34:01;;;;;;;13.77;7.70;;;3.40;99.90;;;;;;4943656;29;20519;-73
2021/12/05 20:36:29;;;;;;;10.40;7.93;;;3.40;99.90;;;;;;4936005;29;20500;-72
2021/12/05 20:38:56;;;;;;;10.03;7.53;;;3.30;99.90;;;;;;4933716;29;20552;-72
2021/12/05 20:41:23;;;;;;;9.87;7.57;;;3.30;99.90;;;;;;4933566;29;20513;-72
2021/12/05 20:43:50;;;;;;;8.73;6.87;;;3.30;99.90;;;;;;4933746;29;20967;-71
2021/12/05 20:46:19;;;;;;;10.73;7.00;;;3.30;99.90;;;;;;4939539;29;20469;-72
2021/12/05 20:48:46;;;;;;;12.23;6.60;;;3.20;99.90;;;;;;4934483;29;20488;-72
2021/12/05 20:51:14;;;;;;;8.27;6.73;;;3.20;99.90;;;;;;4933632;29;20536;-72